ENGLEBRIGHT (USACE) (ENG)

Elevation: 551' · YUBA R basin · Operator: US Army Corps of Engineers

Provisional data, subject to change.
Query executed Tuesday at 11:00:33   clock

Select a sensor type for a plot of data.
Note: Reservoir Flows are daily averages.

Earlier

Date RES ELE    STORAGE    RES CHG    OUTFLOW    INFLOW    PPT INC   
 FEET   AF   AF   CFS   CFS   INCHES  
05/01/2016 518.72 63459 670 -- 3659 0.00
05/02/2016 520.53 64839 1380 -- 3976 0.00
05/03/2016 521.07 65255 416 -- 3324 0.00
05/04/2016 520.68 64954 -301 -- 2806 0.00
05/05/2016 518.62 63384 -1570 -- 2102 0.04
05/06/2016 518.35 63180 -204 -- 2775 0.08
05/07/2016 520.69 64962 1782 -- 3676 0.30
05/08/2016 521.80 65821 859 -- 3098 0.07
05/09/2016 521.83 65844 23 -- 2627 0.00
05/10/2016 521.86 65868 24 -- 2630 0.00
05/11/2016 520.47 64793 -1075 -- 2128 0.00
05/12/2016 518.65 63406 -1387 -- 1999 0.00
05/13/2016 518.09 62984 -422 -- 2554 0.00
05/14/2016 519.10 63747 763 -- 3192 0.00
05/15/2016 519.17 63800 53 -- 2813 0.00
05/16/2016 517.82 62781 -1019 -- 2226 0.00
05/17/2016 518.99 63664 883 -- 3099 0.00
05/18/2016 520.44 64770 1106 -- 3221 0.00
05/19/2016 518.20 63067 -1703 -- 1844 0.00
05/20/2016 519.56 64097 -- -- 3252 0.05
05/21/2016 520.47 64793 696 -- 3070 0.00
05/22/2016 520.90 65124 331 -- 2846 0.00
05/23/2016 519.03 63694 -1430 -- 1938 0.00
05/24/2016 519.76 64249 555 -- 2965 0.02
05/25/2016 518.62 63384 -865 -- 2260 0.00
05/26/2016 518.52 63308 -76 -- 2662 0.00
05/27/2016 520.09 64502 1194 -- 3347 0.00
05/28/2016 521.62 65681 1179 -- 3344 0.00
05/29/2016 521.37 65487 -194 -- 2603 0.00
05/30/2016 521.36 65480 -7 -- 2650 0.00
05/31/2016 -- -- -- -- -- --

Later | Latest

Warning! This data is preliminary and subject to revision.

Show ENG Map | Plot ENG Data | 1 Month ENG Data | Real-Time ENG Data | ENG Info